Terminal Aerodrome Forecast
Issued by NWS

Home | Current Version | Previous Version | Text Only | Print | Product List | Glossary On
Versions: 1 2 3 4 5 6 7 8 9 10 11 12 13 14 15
000
FTUS43 KDTX 290531
TAFMBS
TAF
KMBS 290531Z 2906/3006 18009KT 6SM -SN BKN030 OVC050
      TEMPO 2908/2911 2SM -SN BKN025 OVC040
     FM291200 19011G19KT P6SM BKN045 OVC080
     FM292000 20012G22KT P6SM BKN028 OVC040
     FM300000 22014KT P6SM OVC018=

USA.gov is the U.S. government's official web portal to all federal, state and local government web resources and services.